sensor_id;sensor_type;location;lat;lon;timestamp;pressure;altitude;pressure_sealevel;temperature;humidity
61898;BME280;47850;50.274;18.908;2023-07-13T00:00:30;97768.97;;;19.03;85.14
61898;BME280;47850;50.274;18.908;2023-07-13T00:03:38;97771.75;;;18.94;85.69
61898;BME280;47850;50.274;18.908;2023-07-13T00:06:08;97781.81;;;18.89;85.70
61898;BME280;47850;50.274;18.908;2023-07-13T00:08:36;97783.52;;;18.89;85.85
61898;BME280;47850;50.274;18.908;2023-07-13T00:11:04;97793.13;;;18.91;85.59
61898;BME280;47850;50.274;18.908;2023-07-13T00:13:32;97793.66;;;18.90;85.61
61898;BME280;47850;50.274;18.908;2023-07-13T00:15:59;97791.59;;;18.88;85.56
61898;BME280;47850;50.274;18.908;2023-07-13T00:18:28;97786.91;;;18.88;85.66
61898;BME280;47850;50.274;18.908;2023-07-13T00:20:57;97786.56;;;18.91;86.76
61898;BME280;47850;50.274;18.908;2023-07-13T00:23:36;97796.63;;;18.96;87.97
61898;BME280;47850;50.274;18.908;2023-07-13T00:26:06;97801.70;;;18.98;86.67
61898;BME280;47850;50.274;18.908;2023-07-13T00:28:34;97791.52;;;18.99;85.58
61898;BME280;47850;50.274;18.908;2023-07-13T00:31:02;97782.94;;;19.02;85.83
61898;BME280;47850;50.274;18.908;2023-07-13T00:33:30;97776.88;;;19.07;85.96
61898;BME280;47850;50.274;18.908;2023-07-13T00:35:57;97775.95;;;19.09;86.51
61898;BME280;47850;50.274;18.908;2023-07-13T00:38:25;97773.34;;;19.08;87.26
61898;BME280;47850;50.274;18.908;2023-07-13T00:40:53;97770.80;;;19.05;87.91
61898;BME280;47850;50.274;18.908;2023-07-13T00:43:22;97767.88;;;19.05;88.23
61898;BME280;47850;50.274;18.908;2023-07-13T00:48:25;97758.46;;;19.02;88.83
61898;BME280;47850;50.274;18.908;2023-07-13T00:50:57;97753.83;;;19.05;88.86
61898;BME280;47850;50.274;18.908;2023-07-13T00:53:27;97745.61;;;19.07;88.31
61898;BME280;47850;50.274;18.908;2023-07-13T00:55:57;97752.95;;;19.05;87.54
61898;BME280;47850;50.274;18.908;2023-07-13T00:58:25;97753.94;;;18.98;87.42
61898;BME280;47850;50.274;18.908;2023-07-13T01:00:55;97748.34;;;18.90;87.63
61898;BME280;47850;50.274;18.908;2023-07-13T01:03:23;97746.41;;;18.86;88.14
61898;BME280;47850;50.274;18.908;2023-07-13T01:05:51;97743.48;;;18.83;88.82
61898;BME280;47850;50.274;18.908;2023-07-13T01:08:21;97745.31;;;18.84;88.61
61898;BME280;47850;50.274;18.908;2023-07-13T01:10:57;97735.50;;;18.83;89.25
61898;BME280;47850;50.274;18.908;2023-07-13T01:13:26;97734.46;;;18.81;89.43
61898;BME280;47850;50.274;18.908;2023-07-13T01:15:56;97731.55;;;18.81;89.72
61898;BME280;47850;50.274;18.908;2023-07-13T01:18:27;97736.06;;;18.86;90.06
61898;BME280;47850;50.274;18.908;2023-07-13T01:21:01;97747.27;;;18.86;89.61
61898;BME280;47850;50.274;18.908;2023-07-13T01:23:31;97756.36;;;18.86;89.18
61898;BME280;47850;50.274;18.908;2023-07-13T01:25:59;97750.76;;;18.87;89.07
61898;BME280;47850;50.274;18.908;2023-07-13T01:28:28;97757.16;;;18.88;88.61
61898;BME280;47850;50.274;18.908;2023-07-13T01:30:58;97763.30;;;18.87;88.88
61898;BME280;47850;50.274;18.908;2023-07-13T01:33:26;97765.36;;;18.86;89.14
61898;BME280;47850;50.274;18.908;2023-07-13T01:35:54;97754.05;;;18.83;89.16
61898;BME280;47850;50.274;18.908;2023-07-13T01:38:25;97744.42;;;18.82;89.48
61898;BME280;47850;50.274;18.908;2023-07-13T01:40:53;97744.90;;;18.83;89.83
61898;BME280;47850;50.274;18.908;2023-07-13T01:43:21;97754.14;;;18.84;89.95
61898;BME280;47850;50.274;18.908;2023-07-13T01:45:49;97767.52;;;18.78;89.89
61898;BME280;47850;50.274;18.908;2023-07-13T01:48:17;97791.06;;;18.73;89.73
61898;BME280;47850;50.274;18.908;2023-07-13T01:50:45;97791.98;;;18.67;90.64
61898;BME280;47850;50.274;18.908;2023-07-13T01:53:13;97777.33;;;18.60;90.06
61898;BME280;47850;50.274;18.908;2023-07-13T01:55:41;97762.77;;;18.56;89.74
61898;BME280;47850;50.274;18.908;2023-07-13T01:58:10;97756.11;;;18.52;89.45
61898;BME280;47850;50.274;18.908;2023-07-13T02:00:37;97750.19;;;18.48;89.46
61898;BME280;47850;50.274;18.908;2023-07-13T02:03:05;97747.53;;;18.43;89.86
61898;BME280;47850;50.274;18.908;2023-07-13T02:05:33;97716.48;;;18.38;89.93
61898;BME280;47850;50.274;18.908;2023-07-13T02:08:01;97700.78;;;18.36;90.16
61898;BME280;47850;50.274;18.908;2023-07-13T02:10:29;97697.16;;;18.35;90.33
61898;BME280;47850;50.274;18.908;2023-07-13T02:12:56;97681.14;;;18.34;90.53
61898;BME280;47850;50.274;18.908;2023-07-13T02:15:24;97671.27;;;18.32;91.19
61898;BME280;47850;50.274;18.908;2023-07-13T02:17:52;97670.20;;;18.28;91.42
61898;BME280;47850;50.274;18.908;2023-07-13T02:20:20;97679.48;;;18.25;92.53
61898;BME280;47850;50.274;18.908;2023-07-13T02:22:47;97683.42;;;18.22;92.74
61898;BME280;47850;50.274;18.908;2023-07-13T02:25:15;97684.11;;;18.19;93.14
61898;BME280;47850;50.274;18.908;2023-07-13T02:27:43;97667.51;;;18.13;93.59
61898;BME280;47850;50.274;18.908;2023-07-13T02:30:11;97664.55;;;18.10;93.72
61898;BME280;47850;50.274;18.908;2023-07-13T02:32:39;97668.88;;;18.07;93.63
61898;BME280;47850;50.274;18.908;2023-07-13T02:35:07;97672.87;;;18.05;93.29
61898;BME280;47850;50.274;18.908;2023-07-13T02:37:34;97666.09;;;18.05;93.37
61898;BME280;47850;50.274;18.908;2023-07-13T02:40:03;97664.23;;;18.08;93.16
61898;BME280;47850;50.274;18.908;2023-07-13T02:42:35;97664.93;;;18.07;93.11
61898;BME280;47850;50.274;18.908;2023-07-13T02:45:04;97670.33;;;18.02;92.92
61898;BME280;47850;50.274;18.908;2023-07-13T02:47:34;97673.60;;;17.97;92.87
61898;BME280;47850;50.274;18.908;2023-07-13T02:50:03;97668.16;;;17.99;93.22
61898;BME280;47850;50.274;18.908;2023-07-13T02:52:31;97655.65;;;17.99;93.11
61898;BME280;47850;50.274;18.908;2023-07-13T02:54:59;97645.88;;;17.99;93.49
61898;BME280;47850;50.274;18.908;2023-07-13T02:57:26;97650.20;;;17.98;93.11
61898;BME280;47850;50.274;18.908;2023-07-13T02:59:55;97650.23;;;17.94;93.22
61898;BME280;47850;50.274;18.908;2023-07-13T03:02:23;97658.01;;;17.93;93.79
61898;BME280;47850;50.274;18.908;2023-07-13T03:04:51;97673.91;;;17.92;93.73
61898;BME280;47850;50.274;18.908;2023-07-13T03:07:18;97698.80;;;17.91;93.37
61898;BME280;47850;50.274;18.908;2023-07-13T03:09:46;97707.55;;;17.90;93.11
61898;BME280;47850;50.274;18.908;2023-07-13T03:12:14;97715.77;;;17.92;93.74
61898;BME280;47850;50.274;18.908;2023-07-13T03:14:42;97721.88;;;17.95;93.80
61898;BME280;47850;50.274;18.908;2023-07-13T03:17:09;97735.30;;;17.96;93.68
61898;BME280;47850;50.274;18.908;2023-07-13T03:19:37;97748.53;;;18.03;94.28
61898;BME280;47850;50.274;18.908;2023-07-13T03:22:05;97754.65;;;18.09;93.78
61898;BME280;47850;50.274;18.908;2023-07-13T03:24:34;97757.48;;;18.17;92.95
61898;BME280;47850;50.274;18.908;2023-07-13T03:27:03;97768.35;;;18.24;92.74
61898;BME280;47850;50.274;18.908;2023-07-13T03:29:31;97781.77;;;18.33;92.55
61898;BME280;47850;50.274;18.908;2023-07-13T03:31:59;97780.31;;;18.40;92.48
61898;BME280;47850;50.274;18.908;2023-07-13T03:34:26;97768.38;;;18.47;92.45
61898;BME280;47850;50.274;18.908;2023-07-13T03:36:54;97766.08;;;18.52;92.22
61898;BME280;47850;50.274;18.908;2023-07-13T03:39:22;97761.28;;;18.55;91.95
61898;BME280;47850;50.274;18.908;2023-07-13T03:41:50;97763.02;;;18.58;91.92
61898;BME280;47850;50.274;18.908;2023-07-13T03:44:18;97762.50;;;18.60;91.82
61898;BME280;47850;50.274;18.908;2023-07-13T03:46:46;97764.23;;;18.60;91.35
61898;BME280;47850;50.274;18.908;2023-07-13T03:49:14;97769.14;;;18.62;91.21
61898;BME280;47850;50.274;18.908;2023-07-13T03:51:42;97767.33;;;18.64;90.98
61898;BME280;47850;50.274;18.908;2023-07-13T03:54:10;97770.22;;;18.69;91.29
61898;BME280;47850;50.274;18.908;2023-07-13T03:56:38;97769.95;;;18.74;91.40
61898;BME280;47850;50.274;18.908;2023-07-13T03:59:05;97775.16;;;18.77;91.07
61898;BME280;47850;50.274;18.908;2023-07-13T04:01:33;97775.08;;;18.78;90.74
61898;BME280;47850;50.274;18.908;2023-07-13T04:04:01;97778.68;;;18.83;90.82
61898;BME280;47850;50.274;18.908;2023-07-13T04:06:30;97783.41;;;18.84;90.41
61898;BME280;47850;50.274;18.908;2023-07-13T04:08:59;97785.80;;;18.84;90.16
61898;BME280;47850;50.274;18.908;2023-07-13T04:11:29;97790.78;;;18.87;90.63
61898;BME280;47850;50.274;18.908;2023-07-13T04:13:59;97792.98;;;18.93;90.84
61898;BME280;47850;50.274;18.908;2023-07-13T04:16:28;97792.55;;;18.99;90.55
61898;BME280;47850;50.274;18.908;2023-07-13T04:18:56;97794.88;;;19.06;89.24
61898;BME280;47850;50.274;18.908;2023-07-13T04:21:28;97792.32;;;19.13;87.99
61898;BME280;47850;50.274;18.908;2023-07-13T04:23:57;97798.29;;;19.22;87.48
61898;BME280;47850;50.274;18.908;2023-07-13T04:26:25;97804.02;;;19.30;87.39
61898;BME280;47850;50.274;18.908;2023-07-13T04:28:53;97799.89;;;19.42;87.41
61898;BME280;47850;50.274;18.908;2023-07-13T04:31:21;97797.98;;;19.52;85.97
61898;BME280;47850;50.274;18.908;2023-07-13T04:33:49;97784.26;;;19.63;86.95
61898;BME280;47850;50.274;18.908;2023-07-13T04:36:18;97773.55;;;19.72;86.85
61898;BME280;47850;50.274;18.908;2023-07-13T04:38:46;97770.98;;;19.83;86.39
61898;BME280;47850;50.274;18.908;2023-07-13T04:41:14;97766.52;;;19.91;85.94
61898;BME280;47850;50.274;18.908;2023-07-13T04:43:43;97760.84;;;20.00;86.18
61898;BME280;47850;50.274;18.908;2023-07-13T04:46:13;97758.56;;;20.08;86.60
61898;BME280;47850;50.274;18.908;2023-07-13T04:48:41;97758.34;;;20.16;86.56
61898;BME280;47850;50.274;18.908;2023-07-13T04:51:09;97764.27;;;20.23;86.53
61898;BME280;47850;50.274;18.908;2023-07-13T04:53:37;97766.59;;;20.31;85.95
61898;BME280;47850;50.274;18.908;2023-07-13T04:56:05;97764.98;;;20.35;85.29
61898;BME280;47850;50.274;18.908;2023-07-13T04:58:34;97761.91;;;20.41;85.17
61898;BME280;47850;50.274;18.908;2023-07-13T05:01:03;97759.14;;;20.45;84.90
61898;BME280;47850;50.274;18.908;2023-07-13T05:03:33;97752.73;;;20.52;84.61
61898;BME280;47850;50.274;18.908;2023-07-13T05:06:04;97749.73;;;20.58;84.23
61898;BME280;47850;50.274;18.908;2023-07-13T05:08:33;97752.02;;;20.64;83.96
61898;BME280;47850;50.274;18.908;2023-07-13T05:11:02;97758.89;;;20.67;84.09
61898;BME280;47850;50.274;18.908;2023-07-13T05:13:31;97756.77;;;20.71;84.48
61898;BME280;47850;50.274;18.908;2023-07-13T05:16:00;97760.89;;;20.76;84.59
61898;BME280;47850;50.274;18.908;2023-07-13T05:18:29;97763.73;;;20.83;84.18
61898;BME280;47850;50.274;18.908;2023-07-13T05:21:06;97764.75;;;20.91;83.77
61898;BME280;47850;50.274;18.908;2023-07-13T05:23:35;97767.73;;;21.02;82.79
61898;BME280;47850;50.274;18.908;2023-07-13T05:26:04;97765.66;;;21.08;81.82
61898;BME280;47850;50.274;18.908;2023-07-13T05:28:32;97768.73;;;21.17;81.80
61898;BME280;47850;50.274;18.908;2023-07-13T05:31:00;97765.62;;;21.26;82.07
61898;BME280;47850;50.274;18.908;2023-07-13T05:33:28;97766.95;;;21.34;81.45
61898;BME280;47850;50.274;18.908;2023-07-13T05:35:56;97764.61;;;21.42;81.43
61898;BME280;47850;50.274;18.908;2023-07-13T05:38:24;97754.75;;;21.54;81.18
61898;BME280;47850;50.274;18.908;2023-07-13T05:40:53;97754.94;;;21.67;81.45
61898;BME280;47850;50.274;18.908;2023-07-13T05:43:22;97753.38;;;21.79;81.15
61898;BME280;47850;50.274;18.908;2023-07-13T05:45:54;97757.36;;;21.90;80.53
61898;BME280;47850;50.274;18.908;2023-07-13T05:48:23;97755.64;;;21.98;80.35
61898;BME280;47850;50.274;18.908;2023-07-13T05:50:51;97753.85;;;22.07;79.48
61898;BME280;47850;50.274;18.908;2023-07-13T05:53:18;97746.98;;;22.14;78.94
61898;BME280;47850;50.274;18.908;2023-07-13T05:55:47;97743.73;;;22.23;78.82
61898;BME280;47850;50.274;18.908;2023-07-13T05:58:17;97742.96;;;22.31;79.17
61898;BME280;47850;50.274;18.908;2023-07-13T06:00:46;97740.93;;;22.37;78.57
61898;BME280;47850;50.274;18.908;2023-07-13T06:03:15;97745.04;;;22.43;77.70
61898;BME280;47850;50.274;18.908;2023-07-13T06:05:43;97746.33;;;22.50;77.01
61898;BME280;47850;50.274;18.908;2023-07-13T06:08:11;97745.89;;;22.55;76.85
61898;BME280;47850;50.274;18.908;2023-07-13T06:10:39;97745.44;;;22.62;76.23
61898;BME280;47850;50.274;18.908;2023-07-13T06:13:06;97752.02;;;22.71;76.45
61898;BME280;47850;50.274;18.908;2023-07-13T06:15:34;97749.63;;;22.82;76.30
61898;BME280;47850;50.274;18.908;2023-07-13T06:18:02;97747.63;;;22.97;76.19
61898;BME280;47850;50.274;18.908;2023-07-13T06:20:30;97746.62;;;23.12;75.36
61898;BME280;47850;50.274;18.908;2023-07-13T06:23:01;97747.71;;;23.23;74.97
61898;BME280;47850;50.274;18.908;2023-07-13T06:25:29;97745.67;;;23.34;74.37
61898;BME280;47850;50.274;18.908;2023-07-13T06:27:56;97745.26;;;23.48;73.67
61898;BME280;47850;50.274;18.908;2023-07-13T06:30:24;97745.76;;;23.59;72.55
61898;BME280;47850;50.274;18.908;2023-07-13T06:32:52;97747.69;;;23.70;72.01
61898;BME280;47850;50.274;18.908;2023-07-13T06:35:20;97751.35;;;23.82;71.20
61898;BME280;47850;50.274;18.908;2023-07-13T06:37:48;97753.14;;;23.91;70.62
61898;BME280;47850;50.274;18.908;2023-07-13T06:40:15;97754.64;;;23.98;69.94
61898;BME280;47850;50.274;18.908;2023-07-13T06:42:44;97761.27;;;24.02;68.08
61898;BME280;47850;50.274;18.908;2023-07-13T06:45:12;97760.91;;;24.04;67.66
61898;BME280;47850;50.274;18.908;2023-07-13T06:47:40;97757.52;;;24.09;66.80
61898;BME280;47850;50.274;18.908;2023-07-13T06:50:08;97757.01;;;24.11;66.32
61898;BME280;47850;50.274;18.908;2023-07-13T06:52:36;97757.78;;;24.07;65.53
61898;BME280;47850;50.274;18.908;2023-07-13T06:55:04;97760.38;;;24.09;65.88
61898;BME280;47850;50.274;18.908;2023-07-13T06:57:32;97760.47;;;24.08;65.29
61898;BME280;47850;50.274;18.908;2023-07-13T07:00:00;97766.08;;;24.11;65.78
61898;BME280;47850;50.274;18.908;2023-07-13T07:02:27;97772.67;;;24.06;64.96
61898;BME280;47850;50.274;18.908;2023-07-13T07:04:55;97778.45;;;24.03;64.61
61898;BME280;47850;50.274;18.908;2023-07-13T07:07:24;97785.77;;;24.02;65.28
61898;BME280;47850;50.274;18.908;2023-07-13T07:09:52;97791.19;;;24.02;65.70
61898;BME280;47850;50.274;18.908;2023-07-13T07:12:20;97796.61;;;24.01;66.65
61898;BME280;47850;50.274;18.908;2023-07-13T07:14:48;97799.27;;;23.99;66.90
61898;BME280;47850;50.274;18.908;2023-07-13T07:17:16;97804.21;;;23.99;66.79
61898;BME280;47850;50.274;18.908;2023-07-13T07:19:43;97808.31;;;24.00;66.33
61898;BME280;47850;50.274;18.908;2023-07-13T07:22:11;97811.10;;;23.94;66.40
61898;BME280;47850;50.274;18.908;2023-07-13T07:24:42;97817.80;;;23.84;66.87
61898;BME280;47850;50.274;18.908;2023-07-13T07:27:09;97820.17;;;23.74;67.63
61898;BME280;47850;50.274;18.908;2023-07-13T07:29:38;97821.77;;;23.67;68.49
61898;BME280;47850;50.274;18.908;2023-07-13T07:32:06;97826.42;;;23.56;68.73
61898;BME280;47850;50.274;18.908;2023-07-13T07:34:34;97828.11;;;23.40;69.17
61898;BME280;47850;50.274;18.908;2023-07-13T07:37:02;97827.99;;;23.28;69.32
61898;BME280;47850;50.274;18.908;2023-07-13T07:39:31;97832.86;;;23.19;69.67
61898;BME280;47850;50.274;18.908;2023-07-13T07:41:59;97832.65;;;23.14;69.51
61898;BME280;47850;50.274;18.908;2023-07-13T07:44:26;97830.61;;;23.09;69.80
61898;BME280;47850;50.274;18.908;2023-07-13T07:46:55;97837.48;;;23.14;69.24
61898;BME280;47850;50.274;18.908;2023-07-13T07:49:23;97829.60;;;23.18;68.68
61898;BME280;47850;50.274;18.908;2023-07-13T07:51:51;97831.48;;;23.22;68.72
61898;BME280;47850;50.274;18.908;2023-07-13T07:54:19;97831.97;;;23.21;69.23
61898;BME280;47850;50.274;18.908;2023-07-13T07:56:47;97832.88;;;23.26;69.25
61898;BME280;47850;50.274;18.908;2023-07-13T07:59:15;97831.58;;;23.28;68.86
61898;BME280;47850;50.274;18.908;2023-07-13T08:01:43;97828.16;;;23.35;68.57
61898;BME280;47850;50.274;18.908;2023-07-13T08:04:11;97822.38;;;23.48;67.94
61898;BME280;47850;50.274;18.908;2023-07-13T08:06:38;97819.89;;;23.70;67.69
61898;BME280;47850;50.274;18.908;2023-07-13T08:09:06;97819.66;;;23.96;66.33
61898;BME280;47850;50.274;18.908;2023-07-13T08:11:35;97821.29;;;24.19;64.61
61898;BME280;47850;50.274;18.908;2023-07-13T08:14:04;97819.36;;;24.35;61.96
61898;BME280;47850;50.274;18.908;2023-07-13T08:16:31;97818.31;;;24.42;62.02
61898;BME280;47850;50.274;18.908;2023-07-13T08:19:00;97814.72;;;24.53;61.78
61898;BME280;47850;50.274;18.908;2023-07-13T08:21:28;97809.65;;;24.61;61.28
61898;BME280;47850;50.274;18.908;2023-07-13T08:23:56;97803.39;;;24.71;61.49
61898;BME280;47850;50.274;18.908;2023-07-13T08:26:26;97797.77;;;24.84;61.90
61898;BME280;47850;50.274;18.908;2023-07-13T08:29:00;97796.50;;;25.02;61.49
61898;BME280;47850;50.274;18.908;2023-07-13T08:31:44;97798.17;;;25.27;61.11
61898;BME280;47850;50.274;18.908;2023-07-13T08:34:26;97801.83;;;25.51;59.98
61898;BME280;47850;50.274;18.908;2023-07-13T08:37:14;97801.58;;;25.71;58.85
61898;BME280;47850;50.274;18.908;2023-07-13T08:39:47;97804.83;;;25.90;57.96
61898;BME280;47850;50.274;18.908;2023-07-13T08:42:51;97808.08;;;26.12;58.25
61898;BME280;47850;50.274;18.908;2023-07-13T08:45:47;97808.25;;;26.29;57.22
61898;BME280;47850;50.274;18.908;2023-07-13T08:48:33;97809.83;;;26.30;55.73
61898;BME280;47850;50.274;18.908;2023-07-13T08:54:52;97812.10;;;26.14;56.66
61898;BME280;47850;50.274;18.908;2023-07-13T08:57:53;97809.30;;;26.02;57.39
61898;BME280;47850;50.274;18.908;2023-07-13T09:04:04;97812.59;;;25.75;60.20
61898;BME280;47850;50.274;18.908;2023-07-13T09:15:48;97820.69;;;25.40;62.19
61898;BME280;47850;50.274;18.908;2023-07-13T09:18:49;97822.41;;;25.18;63.14
61898;BME280;47850;50.274;18.908;2023-07-13T09:21:44;97821.39;;;24.86;64.38
61898;BME280;47850;50.274;18.908;2023-07-13T09:27:19;97839.34;;;24.24;66.30
61898;BME280;47850;50.274;18.908;2023-07-13T09:29:54;97840.07;;;23.92;66.88
61898;BME280;47850;50.274;18.908;2023-07-13T09:32:26;97843.13;;;23.70;66.43
61898;BME280;47850;50.274;18.908;2023-07-13T09:34:55;97850.04;;;23.56;66.04
61898;BME280;47850;50.274;18.908;2023-07-13T09:37:28;97852.90;;;23.41;65.80
61898;BME280;47850;50.274;18.908;2023-07-13T09:39:59;97862.47;;;23.21;65.96
61898;BME280;47850;50.274;18.908;2023-07-13T09:42:32;97866.33;;;22.87;66.61
61898;BME280;47850;50.274;18.908;2023-07-13T09:45:01;97876.11;;;22.50;67.81
61898;BME280;47850;50.274;18.908;2023-07-13T09:47:31;97881.30;;;22.10;68.13
61898;BME280;47850;50.274;18.908;2023-07-13T09:50:02;97894.85;;;21.70;69.73
61898;BME280;47850;50.274;18.908;2023-07-13T09:52:50;97904.80;;;21.28;70.08
61898;BME280;47850;50.274;18.908;2023-07-13T09:55:23;97902.73;;;20.80;71.17
61898;BME280;47850;50.274;18.908;2023-07-13T09:57:52;97907.64;;;20.38;72.88
61898;BME280;47850;50.274;18.908;2023-07-13T10:00:23;97919.05;;;20.01;75.35
61898;BME280;47850;50.274;18.908;2023-07-13T10:03:20;97917.17;;;19.63;77.46
61898;BME280;47850;50.274;18.908;2023-07-13T10:05:51;97925.52;;;19.14;79.98
61898;BME280;47850;50.274;18.908;2023-07-13T10:08:26;97908.15;;;18.79;81.47
61898;BME280;47850;50.274;18.908;2023-07-13T10:11:00;97917.20;;;18.45;82.84
61898;BME280;47850;50.274;18.908;2023-07-13T10:13:35;97911.79;;;18.18;83.87
61898;BME280;47850;50.274;18.908;2023-07-13T10:16:07;97916.80;;;17.96;84.59
61898;BME280;47850;50.274;18.908;2023-07-13T10:18:46;97927.18;;;17.83;85.64
61898;BME280;47850;50.274;18.908;2023-07-13T10:21:21;97929.90;;;17.69;86.04
61898;BME280;47850;50.274;18.908;2023-07-13T10:23:55;97943.46;;;17.58;86.33
61898;BME280;47850;50.274;18.908;2023-07-13T10:26:30;97948.84;;;17.50;87.37
61898;BME280;47850;50.274;18.908;2023-07-13T10:29:02;97944.05;;;17.45;87.68
61898;BME280;47850;50.274;18.908;2023-07-13T10:31:32;97938.51;;;17.43;87.97
61898;BME280;47850;50.274;18.908;2023-07-13T10:34:00;97936.05;;;17.43;88.24
61898;BME280;47850;50.274;18.908;2023-07-13T10:36:34;97938.06;;;17.44;88.08
61898;BME280;47850;50.274;18.908;2023-07-13T10:39:06;97938.16;;;17.46;88.20
61898;BME280;47850;50.274;18.908;2023-07-13T10:41:38;97932.38;;;17.49;88.35
61898;BME280;47850;50.274;18.908;2023-07-13T10:44:37;97927.92;;;17.52;88.46
61898;BME280;47850;50.274;18.908;2023-07-13T10:47:15;97929.27;;;17.58;88.57
61898;BME280;47850;50.274;18.908;2023-07-13T10:49:47;97924.05;;;17.62;88.37
61898;BME280;47850;50.274;18.908;2023-07-13T10:52:41;97929.76;;;17.69;88.20
61898;BME280;47850;50.274;18.908;2023-07-13T10:58:18;97935.37;;;17.83;88.84
61898;BME280;47850;50.274;18.908;2023-07-13T11:00:51;97935.23;;;17.90;88.82
61898;BME280;47850;50.274;18.908;2023-07-13T11:03:22;97940.73;;;17.99;89.02
61898;BME280;47850;50.274;18.908;2023-07-13T11:05:51;97940.78;;;18.09;89.00
61898;BME280;47850;50.274;18.908;2023-07-13T11:08:36;97944.42;;;18.17;88.76
61898;BME280;47850;50.274;18.908;2023-07-13T11:14:03;97955.55;;;18.25;88.85
61898;BME280;47850;50.274;18.908;2023-07-13T11:16:36;97961.17;;;18.26;88.91
61898;BME280;47850;50.274;18.908;2023-07-13T11:27:41;97962.76;;;18.48;88.93
61898;BME280;47850;50.274;18.908;2023-07-13T11:30:35;97962.98;;;18.61;88.62
61898;BME280;47850;50.274;18.908;2023-07-13T11:35:36;97953.35;;;18.92;88.23
61898;BME280;47850;50.274;18.908;2023-07-13T11:38:17;97955.79;;;19.06;87.66
61898;BME280;47850;50.274;18.908;2023-07-13T11:40:46;97963.36;;;19.25;87.49
61898;BME280;47850;50.274;18.908;2023-07-13T11:43:16;97971.33;;;19.34;86.30
61898;BME280;47850;50.274;18.908;2023-07-13T11:45:44;97976.30;;;19.43;86.00
61898;BME280;47850;50.274;18.908;2023-07-13T11:48:27;97982.14;;;19.53;85.65
61898;BME280;47850;50.274;18.908;2023-07-13T11:51:04;97982.56;;;19.67;85.07
61898;BME280;47850;50.274;18.908;2023-07-13T11:53:39;97988.34;;;19.80;84.52
61898;BME280;47850;50.274;18.908;2023-07-13T11:56:08;97988.51;;;19.91;84.19
61898;BME280;47850;50.274;18.908;2023-07-13T11:58:36;97987.45;;;19.99;83.61
61898;BME280;47850;50.274;18.908;2023-07-13T12:01:03;97985.29;;;20.09;83.33
61898;BME280;47850;50.274;18.908;2023-07-13T12:03:34;97992.40;;;20.26;82.63
61898;BME280;47850;50.274;18.908;2023-07-13T12:06:05;97990.65;;;20.45;82.84
61898;BME280;47850;50.274;18.908;2023-07-13T12:08:39;97993.02;;;20.62;81.48
61898;BME280;47850;50.274;18.908;2023-07-13T12:11:18;97993.80;;;20.80;80.42
61898;BME280;47850;50.274;18.908;2023-07-13T12:13:49;97992.83;;;21.03;79.60
61898;BME280;47850;50.274;18.908;2023-07-13T12:18:52;97997.60;;;21.35;77.10
61898;BME280;47850;50.274;18.908;2023-07-13T12:21:43;98000.85;;;21.47;76.86
61898;BME280;47850;50.274;18.908;2023-07-13T12:24:19;98008.23;;;21.61;75.32
61898;BME280;47850;50.274;18.908;2023-07-13T12:26:54;98009.65;;;21.77;74.85
61898;BME280;47850;50.274;18.908;2023-07-13T12:29:22;98013.60;;;21.89;74.41
61898;BME280;47850;50.274;18.908;2023-07-13T12:31:50;98011.45;;;21.90;74.49
61898;BME280;47850;50.274;18.908;2023-07-13T12:34:24;98006.61;;;21.92;73.78
61898;BME280;47850;50.274;18.908;2023-07-13T12:36:55;98010.08;;;21.98;73.78
61898;BME280;47850;50.274;18.908;2023-07-13T12:39:33;98013.40;;;22.05;73.84
61898;BME280;47850;50.274;18.908;2023-07-13T12:42:24;98011.02;;;22.12;73.86
61898;BME280;47850;50.274;18.908;2023-07-13T12:45:16;98008.95;;;22.08;72.86
61898;BME280;47850;50.274;18.908;2023-07-13T12:47:48;98018.00;;;22.07;72.91
61898;BME280;47850;50.274;18.908;2023-07-13T12:50:19;98020.02;;;22.20;72.66
61898;BME280;47850;50.274;18.908;2023-07-13T12:52:53;98017.74;;;22.48;72.47
61898;BME280;47850;50.274;18.908;2023-07-13T12:55:22;98015.33;;;22.72;70.54
61898;BME280;47850;50.274;18.908;2023-07-13T12:57:54;98009.38;;;22.86;70.26
61898;BME280;47850;50.274;18.908;2023-07-13T13:00:31;98009.95;;;23.08;69.12
61898;BME280;47850;50.274;18.908;2023-07-13T13:03:07;98013.52;;;23.37;69.14
61898;BME280;47850;50.274;18.908;2023-07-13T13:05:38;98014.91;;;23.78;67.70
61898;BME280;47850;50.274;18.908;2023-07-13T13:08:10;98021.46;;;24.10;65.07
61898;BME280;47850;50.274;18.908;2023-07-13T13:10:38;98018.66;;;24.12;64.72
61898;BME280;47850;50.274;18.908;2023-07-13T13:13:06;98015.04;;;24.00;64.81
61898;BME280;47850;50.274;18.908;2023-07-13T13:15:36;98024.32;;;23.95;64.86
61898;BME280;47850;50.274;18.908;2023-07-13T13:18:16;98028.04;;;23.97;65.28
61898;BME280;47850;50.274;18.908;2023-07-13T13:20:46;98029.41;;;23.95;65.11
61898;BME280;47850;50.274;18.908;2023-07-13T13:23:15;98037.38;;;23.84;63.35
61898;BME280;47850;50.274;18.908;2023-07-13T13:25:49;98039.88;;;23.88;64.19
61898;BME280;47850;50.274;18.908;2023-07-13T13:28:20;98037.04;;;24.27;63.97
61898;BME280;47850;50.274;18.908;2023-07-13T13:30:48;98034.95;;;24.63;61.96
61898;BME280;47850;50.274;18.908;2023-07-13T13:33:20;98037.38;;;24.86;61.25
61898;BME280;47850;50.274;18.908;2023-07-13T13:35:49;98036.56;;;24.99;59.72
61898;BME280;47850;50.274;18.908;2023-07-13T13:38:20;98035.25;;;24.97;59.89
61898;BME280;47850;50.274;18.908;2023-07-13T13:40:48;98040.25;;;24.74;59.21
61898;BME280;47850;50.274;18.908;2023-07-13T13:43:26;98039.69;;;24.53;59.15
61898;BME280;47850;50.274;18.908;2023-07-13T13:45:58;98030.94;;;24.18;60.07
61898;BME280;47850;50.274;18.908;2023-07-13T13:48:33;98027.27;;;23.83;61.30
61898;BME280;47850;50.274;18.908;2023-07-13T13:51:09;98033.77;;;23.50;62.40